createdAt,value
2018-04-28T00:02:04.638Z,42.10
2018-04-28T00:04:31.628Z,41.20
2018-04-28T00:06:58.103Z,41.00
2018-04-28T00:09:24.334Z,41.20
2018-04-28T00:11:50.520Z,41.20
2018-04-28T00:14:16.712Z,42.10
2018-04-28T00:16:48.614Z,40.50
2018-04-28T00:19:19.596Z,42.90
2018-04-28T00:22:04.506Z,43.00
2018-04-28T00:24:30.738Z,43.60
2018-04-28T00:27:01.943Z,43.20
2018-04-28T00:29:28.167Z,43.00
2018-04-28T00:31:54.400Z,42.30
2018-04-28T00:34:20.587Z,42.00
2018-04-28T00:39:49.766Z,40.90
2018-04-28T00:42:17.662Z,40.60
2018-04-28T00:44:45.384Z,40.70
2018-04-28T00:47:18.362Z,40.70
2018-04-28T00:49:45.602Z,40.80
2018-04-28T00:52:11.803Z,41.20
2018-04-28T00:57:40.830Z,40.90
2018-04-28T01:00:12.826Z,41.10
2018-04-28T01:02:39.061Z,41.00
2018-04-28T01:05:05.987Z,41.90
2018-04-28T01:07:32.193Z,41.90
2018-04-28T01:09:59.926Z,42.70
2018-04-28T01:12:41.050Z,43.20
2018-04-28T01:15:13.929Z,42.80
2018-04-28T01:17:44.794Z,43.70
2018-04-28T01:20:10.985Z,43.20
2018-04-28T01:22:38.840Z,44.10
2018-04-28T01:25:06.689Z,44.10
2018-04-28T01:27:37.899Z,43.70
2018-04-28T01:33:33.414Z,43.80
2018-04-28T01:36:08.557Z,44.30
2018-04-28T01:38:34.718Z,44.60
2018-04-28T01:41:07.609Z,45.00
2018-04-28T01:46:36.700Z,43.80
2018-04-28T01:49:02.944Z,44.70
2018-04-28T01:51:30.008Z,45.10
2018-04-28T02:00:31.671Z,45.40
2018-04-28T02:02:59.493Z,46.10
2018-04-28T02:05:38.892Z,46.00
2018-04-28T02:08:05.662Z,46.20
2018-04-28T02:10:36.586Z,46.40
2018-04-28T02:13:06.632Z,46.30
2018-04-28T02:15:34.747Z,47.60
2018-04-28T02:18:01.795Z,48.30
2018-04-28T02:20:30.869Z,48.40
2018-04-28T02:26:20.692Z,47.50
2018-04-28T02:31:52.822Z,47.80
2018-04-28T02:34:35.961Z,48.00
2018-04-28T02:37:10.010Z,47.60
2018-04-28T02:39:49.555Z,47.50
2018-04-28T02:42:21.870Z,47.80
2018-04-28T02:45:05.996Z,49.00
2018-04-28T02:47:32.162Z,49.50
2018-04-28T02:50:13.252Z,49.20
2018-04-28T02:52:46.280Z,49.20
2018-04-28T02:58:36.838Z,47.70
2018-04-28T03:04:08.268Z,48.50
2018-04-28T03:06:42.221Z,48.50
2018-04-28T03:09:09.327Z,49.10
2018-04-28T03:11:42.114Z,48.70
2018-04-28T03:14:08.280Z,48.80
2018-04-28T03:16:41.317Z,48.20
2018-04-28T03:19:17.273Z,48.50
2018-04-28T03:21:47.340Z,48.30
2018-04-28T03:27:14.798Z,47.90
2018-04-28T03:29:52.008Z,47.50
2018-04-28T03:32:18.129Z,48.50
2018-04-28T03:34:45.326Z,48.60
2018-04-28T03:37:29.215Z,48.70
2018-04-28T03:39:56.335Z,49.00
2018-04-28T03:42:26.219Z,49.00
2018-04-28T03:44:52.735Z,48.50
2018-04-28T03:47:19.635Z,47.30
2018-04-28T03:49:45.803Z,48.10
2018-04-28T03:52:24.298Z,48.60
2018-04-28T03:54:52.294Z,47.80
2018-04-28T03:57:39.895Z,48.00
2018-04-28T04:00:25.327Z,47.00
2018-04-28T04:03:19.440Z,47.10
2018-04-28T04:05:52.597Z,47.00
2018-04-28T04:11:40.914Z,46.20
2018-04-28T04:14:13.899Z,46.70
2018-04-28T04:16:49.990Z,46.00
2018-04-28T04:22:39.494Z,45.00
2018-04-28T04:25:05.634Z,45.00
2018-04-28T04:27:37.868Z,44.90
2018-04-28T04:30:09.606Z,45.20
2018-04-28T04:32:35.727Z,45.50
2018-04-28T04:38:27.645Z,45.00
2018-04-28T04:44:09.417Z,47.80
2018-04-28T04:46:43.588Z,47.70
2018-04-28T04:52:38.384Z,46.40
2018-04-28T04:55:11.300Z,46.60
2018-04-28T04:57:44.243Z,46.40
2018-04-28T05:03:18.497Z,46.70
2018-04-28T05:06:07.489Z,47.80
2018-04-28T05:08:43.578Z,47.40
2018-04-28T05:14:22.412Z,47.80
2018-04-28T05:16:50.363Z,47.80
2018-04-28T05:19:28.634Z,48.50
2018-04-28T05:22:44.699Z,48.40
2018-04-28T05:25:26.170Z,48.30
2018-04-28T05:31:22.806Z,49.10
2018-04-28T05:37:27.947Z,47.80
2018-04-28T05:43:12.135Z,45.50
2018-04-28T05:45:53.499Z,47.70
2018-04-28T05:48:28.529Z,46.60
2018-04-28T05:54:15.923Z,45.20
2018-04-28T05:59:46.470Z,44.40
2018-04-28T06:05:33.427Z,43.90
2018-04-28T06:11:11.900Z,45.70
2018-04-28T06:13:53.339Z,47.50
2018-04-28T06:20:04.045Z,48.40
2018-04-28T06:22:30.112Z,48.40
2018-04-28T06:24:56.233Z,51.40
2018-04-28T06:27:24.192Z,52.80
2018-04-28T06:29:51.061Z,52.60
2018-04-28T06:32:17.255Z,52.40
2018-04-28T06:34:43.368Z,52.60
2018-04-28T06:37:09.524Z,52.70
2018-04-28T06:39:35.629Z,52.40
2018-04-28T06:42:01.821Z,51.30
2018-04-28T06:44:28.208Z,49.60
2018-04-28T06:46:54.370Z,49.60
2018-04-28T06:49:20.543Z,49.70
2018-04-28T06:51:46.681Z,50.60
2018-04-28T06:54:12.832Z,51.10
2018-04-28T06:56:38.945Z,50.70
2018-04-28T06:59:05.048Z,50.60
2018-04-28T07:01:31.261Z,51.10
2018-04-28T07:03:58.122Z,50.50
2018-04-28T07:06:24.239Z,50.40
2018-04-28T07:08:50.375Z,49.50
2018-04-28T07:11:16.492Z,49.40
2018-04-28T07:13:42.667Z,50.70
2018-04-28T07:16:08.790Z,52.10
2018-04-28T07:18:34.912Z,49.10
2018-04-28T07:21:01.133Z,51.20
2018-04-28T07:23:27.220Z,51.00
2018-04-28T07:25:53.364Z,51.60
2018-04-28T07:28:19.500Z,51.80
2018-04-28T07:30:45.739Z,51.50
2018-04-28T07:33:11.880Z,49.80
2018-04-28T07:35:37.992Z,52.30
2018-04-28T07:38:04.136Z,52.10
2018-04-28T07:40:30.287Z,53.50
2018-04-28T07:42:57.189Z,52.80
2018-04-28T07:45:23.322Z,52.70
2018-04-28T07:47:49.479Z,50.50
2018-04-28T07:50:15.600Z,49.60
2018-04-28T07:52:41.755Z,48.10
2018-04-28T07:55:07.926Z,48.50
2018-04-28T07:57:34.087Z,48.90
2018-04-28T08:00:00.202Z,47.50
2018-04-28T08:02:26.546Z,47.00
2018-04-28T08:04:52.668Z,45.60
2018-04-28T08:07:18.809Z,44.70
2018-04-28T08:09:44.973Z,44.30
2018-04-28T08:12:11.135Z,44.60
2018-04-28T08:14:37.273Z,44.30
2018-04-28T08:17:03.442Z,45.20
2018-04-28T08:19:29.647Z,45.00
2018-04-28T08:21:55.796Z,44.10
2018-04-28T08:24:21.911Z,44.10
2018-04-28T08:26:48.023Z,43.10
2018-04-28T08:29:14.912Z,42.60
2018-04-28T08:31:41.020Z,42.40
2018-04-28T08:34:07.122Z,41.30
2018-04-28T08:36:33.247Z,40.70
2018-04-28T08:39:00.222Z,40.30
2018-04-28T08:41:26.283Z,39.20
2018-04-28T08:43:52.492Z,40.90
2018-04-28T08:46:18.716Z,41.30
2018-04-28T08:48:44.910Z,42.10
2018-04-28T08:51:11.073Z,41.20
2018-04-28T08:53:37.174Z,41.20
2018-04-28T08:56:03.334Z,40.10
2018-04-28T08:58:29.475Z,37.80
2018-04-28T09:01:01.466Z,38.90
2018-04-28T09:03:27.598Z,38.80
2018-04-28T09:05:53.721Z,39.10
2018-04-28T09:08:19.878Z,38.90
2018-04-28T09:10:46.799Z,36.90
2018-04-28T09:13:12.977Z,36.90
2018-04-28T09:15:39.161Z,37.60
2018-04-28T09:18:05.379Z,38.80
2018-04-28T09:20:31.644Z,39.10
2018-04-28T09:22:57.858Z,39.70
2018-04-28T09:25:24.020Z,38.40
2018-04-28T09:27:50.927Z,39.50
2018-04-28T09:30:17.102Z,39.40
2018-04-28T09:32:43.357Z,38.60
2018-04-28T09:35:10.360Z,38.20
2018-04-28T09:37:36.524Z,38.10
2018-04-28T09:40:03.466Z,38.10
2018-04-28T09:42:29.682Z,38.00
2018-04-28T09:44:55.848Z,36.90
2018-04-28T09:47:22.762Z,37.50
2018-04-28T09:49:49.147Z,37.40
2018-04-28T09:55:09.384Z,33.80
2018-04-28T09:57:35.597Z,36.70
2018-04-28T10:00:22.394Z,36.00
2018-04-28T10:02:49.074Z,38.90
2018-04-28T10:05:15.242Z,40.90
2018-04-28T10:07:42.176Z,46.10
2018-04-28T10:10:08.339Z,46.00
2018-04-28T10:12:34.566Z,47.50
2018-04-28T10:15:01.276Z,47.90
2018-04-28T10:17:27.456Z,47.10
2018-04-28T10:19:53.613Z,48.30
2018-04-28T10:22:19.834Z,47.80
2018-04-28T10:24:46.073Z,46.50
2018-04-28T10:27:12.323Z,47.70
2018-04-28T10:29:38.532Z,47.40
2018-04-28T10:32:04.715Z,45.80
2018-04-28T10:34:30.897Z,45.60
2018-04-28T10:36:57.060Z,42.70
2018-04-28T10:39:23.233Z,44.10
2018-04-28T10:41:51.167Z,42.50
2018-04-28T10:44:17.595Z,42.50
2018-04-28T10:46:43.848Z,42.20
2018-04-28T10:49:10.805Z,39.60
2018-04-28T10:51:37.026Z,39.60
2018-04-28T10:54:03.220Z,38.00
2018-04-28T10:56:29.433Z,38.40
2018-04-28T10:58:55.651Z,38.10
2018-04-28T11:01:21.871Z,37.70
2018-04-28T11:03:48.081Z,36.00
2018-04-28T11:06:14.283Z,37.40
2018-04-28T11:08:40.512Z,36.20
2018-04-28T11:11:06.768Z,35.00
2018-04-28T11:13:32.922Z,33.80
2018-04-28T11:16:00.949Z,35.90
2018-04-28T11:18:27.174Z,36.30
2018-04-28T11:20:53.378Z,36.20
2018-04-28T11:23:19.635Z,36.80
2018-04-28T11:25:45.901Z,36.40
2018-04-28T11:28:12.057Z,36.30
2018-04-28T11:30:38.256Z,34.50
2018-04-28T11:33:04.466Z,36.40
2018-04-28T11:35:30.699Z,36.60
2018-04-28T11:37:56.916Z,36.60
2018-04-28T11:40:23.086Z,36.20
2018-04-28T11:42:49.269Z,36.80
2018-04-28T11:45:15.417Z,35.70
2018-04-28T11:47:41.618Z,36.10
2018-04-28T11:50:07.792Z,34.40
2018-04-28T11:52:34.033Z,36.90
2018-04-28T11:55:00.219Z,37.40
2018-04-28T11:57:26.354Z,36.90
2018-04-28T11:59:52.703Z,35.70
2018-04-28T12:02:18.904Z,35.80
2018-04-28T12:04:45.115Z,35.40
2018-04-28T12:07:11.339Z,34.90
2018-04-28T12:09:37.570Z,35.20
2018-04-28T12:12:03.755Z,34.50
2018-04-28T12:14:30.675Z,34.80
2018-04-28T12:16:56.874Z,34.80
2018-04-28T12:19:23.028Z,34.20
2018-04-28T12:21:49.209Z,34.70
2018-04-28T12:24:15.391Z,34.50
2018-04-28T12:26:42.295Z,34.40
2018-04-28T12:29:08.461Z,34.40
2018-04-28T12:31:34.630Z,33.80
2018-04-28T12:34:00.804Z,33.40
2018-04-28T12:36:26.993Z,33.90
2018-04-28T12:38:53.160Z,33.90
2018-04-28T12:41:20.134Z,33.50
2018-04-28T12:43:46.545Z,33.40
2018-04-28T12:46:12.732Z,33.30
2018-04-28T12:48:38.922Z,33.50
2018-04-28T12:51:05.883Z,33.70
2018-04-28T12:53:32.066Z,33.70
2018-04-28T12:55:58.296Z,33.80
2018-04-28T12:58:24.474Z,34.20
2018-04-28T13:00:50.642Z,35.00
2018-04-28T13:03:16.841Z,35.00
2018-04-28T13:05:43.932Z,33.80
2018-04-28T13:08:10.108Z,35.80
2018-04-28T13:10:36.291Z,35.90
2018-04-28T13:13:02.472Z,35.20
2018-04-28T13:15:28.655Z,34.90
2018-04-28T13:17:54.821Z,35.80
2018-04-28T13:20:21.016Z,34.30
2018-04-28T13:22:47.987Z,34.80
2018-04-28T13:25:14.130Z,34.80
2018-04-28T13:27:40.308Z,34.00
2018-04-28T13:30:06.478Z,32.00
2018-04-28T13:32:32.641Z,33.80
2018-04-28T13:34:58.807Z,34.60
2018-04-28T13:37:25.733Z,35.60
2018-04-28T13:39:51.944Z,35.60
2018-04-28T13:42:19.290Z,36.40
2018-04-28T13:44:45.467Z,36.20
2018-04-28T13:47:11.634Z,35.30
2018-04-28T13:49:38.229Z,35.80
2018-04-28T13:52:04.411Z,33.10
2018-04-28T13:54:31.307Z,34.30
2018-04-28T13:56:57.492Z,34.20
2018-04-28T13:59:23.654Z,34.70
2018-04-28T14:01:50.618Z,34.30
2018-04-28T14:04:16.950Z,35.50
2018-04-28T14:06:43.150Z,34.80
2018-04-28T14:09:09.326Z,34.60
2018-04-28T14:11:35.521Z,33.40
2018-04-28T14:14:01.690Z,33.70
2018-04-28T14:16:27.867Z,33.40
2018-04-28T14:18:54.085Z,32.30
2018-04-28T14:21:20.270Z,35.30
2018-04-28T14:23:46.443Z,34.60
2018-04-28T14:26:12.615Z,35.10
2018-04-28T14:28:38.812Z,35.00
2018-04-28T14:31:04.977Z,36.50
2018-04-28T14:33:31.153Z,35.40
2018-04-28T14:35:57.309Z,34.20
2018-04-28T14:38:24.221Z,34.10
2018-04-28T14:40:50.413Z,34.10
2018-04-28T14:43:17.328Z,34.10
2018-04-28T14:45:43.531Z,34.70
2018-04-28T14:48:09.721Z,34.60
2018-04-28T14:50:35.899Z,35.00
2018-04-28T14:53:02.065Z,35.30
2018-04-28T14:55:28.280Z,34.40
2018-04-28T14:57:54.434Z,34.30
2018-04-28T15:00:20.583Z,33.00
2018-04-28T15:02:46.747Z,32.70
2018-04-28T15:05:12.899Z,32.70
2018-04-28T15:07:39.065Z,32.10
2018-04-28T15:10:05.993Z,31.80
2018-04-28T15:12:32.203Z,31.70
2018-04-28T15:14:58.374Z,31.60
2018-04-28T15:17:24.528Z,31.60
2018-04-28T15:19:51.452Z,31.40
2018-04-28T15:22:17.650Z,31.30
2018-04-28T15:24:43.807Z,30.90
2018-04-28T15:27:09.964Z,31.30
2018-04-28T15:29:36.125Z,31.30
2018-04-28T15:32:03.044Z,32.20
2018-04-28T15:34:29.311Z,32.20
2018-04-28T15:36:56.232Z,32.90
2018-04-28T15:39:22.427Z,32.80
2018-04-28T15:41:48.588Z,32.40
2018-04-28T15:44:14.752Z,33.10
2018-04-28T15:46:41.698Z,31.90
2018-04-28T15:49:08.601Z,31.20
2018-04-28T15:51:34.831Z,31.10
2018-04-28T15:54:01.054Z,30.40
2018-04-28T15:56:27.210Z,31.50
2018-04-28T15:58:53.366Z,31.30
2018-04-28T16:01:20.284Z,32.10
2018-04-28T16:03:47.182Z,32.50
2018-04-28T16:06:14.095Z,30.50
2018-04-28T16:08:40.270Z,30.40
2018-04-28T16:11:06.446Z,30.00
2018-04-28T16:13:32.607Z,30.00
2018-04-28T16:15:58.789Z,30.10
2018-04-28T16:18:24.945Z,31.90
2018-04-28T16:20:51.134Z,31.80
2018-04-28T16:23:17.302Z,32.40
2018-04-28T16:25:43.506Z,33.00
2018-04-28T16:28:09.696Z,31.90
2018-04-28T16:30:35.979Z,32.40
2018-04-28T16:33:02.160Z,31.00
2018-04-28T16:35:28.332Z,32.90
2018-04-28T16:37:54.524Z,32.10
2018-04-28T16:40:20.700Z,32.80
2018-04-28T16:42:47.730Z,34.40
2018-04-28T16:45:14.655Z,33.40
2018-04-28T16:47:40.895Z,32.20
2018-04-28T16:50:07.111Z,33.70
2018-04-28T16:52:34.097Z,34.50
2018-04-28T16:55:00.284Z,34.50
2018-04-28T16:57:26.599Z,33.20
2018-04-28T16:59:53.282Z,34.80
2018-04-28T17:02:19.570Z,35.00
2018-04-28T17:04:46.523Z,35.00
2018-04-28T17:07:12.708Z,34.90
2018-04-28T17:09:39.690Z,36.90
2018-04-28T17:12:05.922Z,36.20
2018-04-28T17:14:32.859Z,36.80
2018-04-28T17:16:59.079Z,36.80
2018-04-28T17:19:25.299Z,36.80
2018-04-28T17:21:51.453Z,36.90
2018-04-28T17:24:18.500Z,37.10
2018-04-28T17:26:44.794Z,37.20
2018-04-28T17:29:11.072Z,37.40
2018-04-28T17:31:37.491Z,37.70
2018-04-28T17:34:03.756Z,37.70
2018-04-28T17:36:30.068Z,37.50
2018-04-28T17:38:56.350Z,37.40
2018-04-28T17:41:22.641Z,37.40
2018-04-28T17:43:48.840Z,37.40
2018-04-28T17:46:15.038Z,37.90
2018-04-28T17:48:41.231Z,38.20
2018-04-28T17:51:07.411Z,38.30
2018-04-28T17:53:34.329Z,39.80
2018-04-28T17:56:00.495Z,39.10
2018-04-28T17:58:26.679Z,39.20
2018-04-28T18:00:52.879Z,39.70
2018-04-28T18:03:19.061Z,39.80
2018-04-28T18:05:45.258Z,39.60
2018-04-28T18:08:11.418Z,39.30
2018-04-28T18:10:37.599Z,39.40
2018-04-28T18:13:03.771Z,39.10
2018-04-28T18:15:29.956Z,39.30
2018-04-28T18:17:56.117Z,39.30
2018-04-28T18:20:22.279Z,39.00
2018-04-28T18:22:48.519Z,38.90
2018-04-28T18:25:14.723Z,38.90
2018-04-28T18:27:40.909Z,39.00
2018-04-28T18:30:07.819Z,39.00
2018-04-28T18:32:33.969Z,38.90
2018-04-28T18:35:00.179Z,39.10
2018-04-28T18:37:26.400Z,39.50
2018-04-28T18:39:52.567Z,39.30
2018-04-28T18:42:18.755Z,39.30
2018-04-28T18:44:44.918Z,39.20
2018-04-28T18:47:11.157Z,39.20
2018-04-28T18:49:37.362Z,39.50
2018-04-28T18:52:03.530Z,38.00
2018-04-28T18:54:29.732Z,40.50
2018-04-28T18:56:55.961Z,41.90
2018-04-28T18:59:22.132Z,44.50
2018-04-28T19:01:48.408Z,47.20
2018-04-28T19:04:14.651Z,46.30
2018-04-28T19:06:40.862Z,48.40
2018-04-28T19:09:07.854Z,48.50
2018-04-28T19:11:34.056Z,48.40
2018-04-28T19:14:03.646Z,48.90
2018-04-28T19:16:29.838Z,47.70
2018-04-28T19:18:55.996Z,49.40
2018-04-28T19:21:22.243Z,49.20
2018-04-28T19:23:49.179Z,48.50
2018-04-28T19:26:16.099Z,49.60
2018-04-28T19:28:42.294Z,49.60
2018-04-28T19:31:08.512Z,51.00
2018-04-28T19:33:34.664Z,49.20
2018-04-28T19:36:00.865Z,48.90
2018-04-28T19:38:27.083Z,49.40
2018-04-28T19:40:53.279Z,50.80
2018-04-28T19:43:19.441Z,50.30
2018-04-28T19:45:45.695Z,51.50
2018-04-28T19:48:11.866Z,51.70
2018-04-28T19:50:38.089Z,51.40
2018-04-28T19:53:04.282Z,51.10
2018-04-28T19:55:30.420Z,51.60
2018-04-28T19:57:58.125Z,51.60
2018-04-28T20:00:24.418Z,51.70
2018-04-28T20:02:50.518Z,52.50
2018-04-28T20:05:16.755Z,53.00
2018-04-28T20:07:43.066Z,52.80
2018-04-28T20:10:09.293Z,53.20
2018-04-28T20:12:36.192Z,52.80
2018-04-28T20:15:02.449Z,52.80
2018-04-28T20:17:28.618Z,53.20
2018-04-28T20:19:54.821Z,53.50
2018-04-28T20:22:39.518Z,53.70
2018-04-28T20:25:17.351Z,53.90
2018-04-28T20:27:43.541Z,54.00
2018-04-28T20:30:09.894Z,53.80
2018-04-28T20:32:36.175Z,53.40
2018-04-28T20:35:03.855Z,53.50
2018-04-28T20:37:30.044Z,53.40
2018-04-28T20:39:56.272Z,53.50
2018-04-28T20:42:22.436Z,54.10
2018-04-28T20:47:40.812Z,55.10
2018-04-28T20:50:07.097Z,54.80
2018-04-28T20:52:34.147Z,55.10
2018-04-28T20:55:00.391Z,55.10
2018-04-28T20:57:26.627Z,55.20
2018-04-28T20:59:53.911Z,55.20
2018-04-28T21:02:20.132Z,54.90
2018-04-28T21:04:47.206Z,55.10
2018-04-28T21:07:13.387Z,54.80
2018-04-28T21:09:39.572Z,54.90
2018-04-28T21:12:05.789Z,55.00
2018-04-28T21:14:31.980Z,55.30
2018-04-28T21:16:58.194Z,55.20
2018-04-28T21:19:24.433Z,55.30
2018-04-28T21:21:51.803Z,55.00
2018-04-28T21:24:18.178Z,55.00
2018-04-28T21:26:44.570Z,55.00
2018-04-28T21:29:10.875Z,54.90
2018-04-28T21:31:37.043Z,55.00
2018-04-28T21:34:03.227Z,54.90
2018-04-28T21:36:29.451Z,55.40
2018-04-28T21:38:55.637Z,55.20
2018-04-28T21:41:21.819Z,54.10
2018-04-28T21:43:48.046Z,52.60
2018-04-28T21:46:14.220Z,52.00
2018-04-28T21:48:40.489Z,51.20
2018-04-28T21:51:07.379Z,50.90
2018-04-28T21:53:33.566Z,50.90
2018-04-28T21:55:59.802Z,50.70
2018-04-28T21:58:26.712Z,51.20
2018-04-28T22:00:52.911Z,49.20
2018-04-28T22:03:19.134Z,50.70
2018-04-28T22:05:45.347Z,50.80
2018-04-28T22:08:11.548Z,50.70
2018-04-28T22:10:37.811Z,50.90
2018-04-28T22:13:03.998Z,51.50
2018-04-28T22:15:30.174Z,51.50
2018-04-28T22:17:56.358Z,51.70
2018-04-28T22:20:22.516Z,51.50
2018-04-28T22:22:48.728Z,51.20
2018-04-28T22:25:14.907Z,51.30
2018-04-28T22:27:41.143Z,49.10
2018-04-28T22:30:07.346Z,51.00
2018-04-28T22:32:33.578Z,51.30
2018-04-28T22:35:00.543Z,50.80
2018-04-28T22:37:26.789Z,50.80
2018-04-28T22:39:52.963Z,50.90
2018-04-28T22:42:19.172Z,50.90
2018-04-28T22:44:45.383Z,51.40
2018-04-28T22:47:11.563Z,51.90
2018-04-28T22:49:37.811Z,51.60
2018-04-28T22:52:04.799Z,51.30
2018-04-28T22:54:31.780Z,51.40
2018-04-28T22:56:58.006Z,51.40
2018-04-28T22:59:24.186Z,49.50
2018-04-28T23:01:50.375Z,50.80
2018-04-28T23:04:16.584Z,49.20
2018-04-28T23:06:42.850Z,51.70
2018-04-28T23:09:08.960Z,51.50
2018-04-28T23:11:35.187Z,51.90
2018-04-28T23:14:01.501Z,52.10
2018-04-28T23:16:28.416Z,52.60
2018-04-28T23:18:54.694Z,52.50
2018-04-28T23:21:21.664Z,53.30
2018-04-28T23:23:47.855Z,53.20
2018-04-28T23:26:14.030Z,53.40
2018-04-28T23:28:40.197Z,53.60
2018-04-28T23:31:06.395Z,53.80
2018-04-28T23:33:32.599Z,54.20
2018-04-28T23:35:58.812Z,54.70
2018-04-28T23:38:25.040Z,54.70
2018-04-28T23:40:51.323Z,54.00
2018-04-28T23:43:17.510Z,54.40
2018-04-28T23:45:43.673Z,51.80
2018-04-28T23:48:10.620Z,54.40
2018-04-28T23:50:36.802Z,54.30
2018-04-28T23:53:02.974Z,53.80
2018-04-28T23:55:29.891Z,54.50
2018-04-28T23:57:56.075Z,54.40
